Time;durP1;ratioP1;P1;durP2;ratioP2;P2;SDS_P1;SDS_P2;PMS_P1;PMS_P2;Temp;Humidity;BMP_temperature;BMP_pressure;BME280_temperature;BME280_humidity;BME280_pressure;Samples;Min_cycle;Max_cycle;Signal;HPM_P1;HPM_P2
2021/12/27 06:08:13;;;;;;;20.33;12.65;;;;;;;4.02;48.15;100139.44;5603485;31;128332;-58
2021/12/27 06:11:15;;;;;;;19.87;12.32;;;;;;;4.02;48.15;100139.44;5584102;31;33511;-58
2021/12/27 06:14:17;;;;;;;21.02;13.85;;;;;;;3.53;49.07;100140.75;5584360;32;33579;-58
2021/12/27 06:17:21;;;;;;;20.73;13.00;;;;;;;3.51;49.00;100142.88;5585007;31;33688;-58
2021/12/27 06:20:23;;;;;;;19.02;13.60;;;;;;;3.55;50.37;100140.53;5584569;32;34233;-58
2021/12/27 06:23:25;;;;;;;21.00;13.95;;;;;;;3.66;50.48;100138.84;5584255;32;34287;-58
2021/12/27 06:26:27;;;;;;;18.37;12.50;;;;;;;3.65;54.38;100138.06;5584228;31;33077;-58
2021/12/27 06:29:30;;;;;;;21.15;13.23;;;;;;;3.57;50.48;100137.62;5582936;32;33782;-58
2021/12/27 06:32:33;;;;;;;19.02;12.68;;;;;;;3.71;48.73;100133.66;5584237;32;34216;-58
2021/12/27 06:35:35;;;;;;;19.10;12.02;;;;;;;3.73;49.42;100137.66;5584203;31;33720;-58
2021/12/27 06:38:37;;;;;;;20.15;11.82;;;;;;;3.84;53.06;100137.81;5571542;32;33577;-58
2021/12/27 06:41:40;;;;;;;18.15;12.40;;;;;;;3.73;46.79;100134.19;5564595;32;33345;-58
2021/12/27 06:44:42;;;;;;;19.20;12.70;;;;;;;3.88;45.79;100133.66;5564538;32;33741;-58
2021/12/27 06:47:44;;;;;;;19.77;12.85;;;;;;;3.83;47.26;100126.41;5564586;32;33555;-59
2021/12/27 06:50:47;;;;;;;23.50;14.30;;;;;;;4.14;66.39;100133.00;5564570;32;33846;-58
2021/12/27 06:53:49;;;;;;;19.52;12.88;;;;;;;5.20;60.85;100123.91;5564530;32;33806;-58
2021/12/27 06:56:51;;;;;;;22.95;13.75;;;;;;;4.89;57.84;100118.25;5564706;32;33548;-58
2021/12/27 06:59:53;;;;;;;19.23;13.25;;;;;;;4.52;46.68;100127.91;5564601;32;33524;-58
2021/12/27 07:02:56;;;;;;;19.87;13.15;;;;;;;4.43;45.80;100130.19;5564482;32;33809;-58
2021/12/27 07:05:59;;;;;;;20.85;13.57;;;;;;;4.19;50.14;100135.69;5564375;32;34293;-58
2021/12/27 07:09:03;;;;;;;24.40;13.23;;;;;;;4.47;60.13;100128.66;5564447;32;34234;-58
2021/12/27 07:12:06;;;;;;;21.77;12.77;;;;;;;4.21;47.85;100123.00;5564369;32;33583;-58
2021/12/27 07:15:09;;;;;;;20.42;13.00;;;;;;;4.30;48.72;100123.38;5564586;32;33652;-58
2021/12/27 07:18:13;;;;;;;19.45;12.10;;;;;;;4.28;50.14;100136.09;5557307;32;33550;-58
2021/12/27 07:21:15;;;;;;;17.92;12.70;;;;;;;4.24;47.00;100137.62;5551287;32;33884;-59
2021/12/27 07:24:17;;;;;;;19.48;13.15;;;;;;;4.19;50.13;100129.59;5551334;32;33625;-58
2021/12/27 07:27:19;;;;;;;21.17;13.25;;;;;;;4.00;50.82;100127.19;5551406;32;34461;-58
2021/12/27 07:30:22;;;;;;;18.27;12.18;;;;;;;3.87;47.90;100124.87;5551438;32;34050;-58
2021/12/27 07:33:24;;;;;;;14.65;9.60;;;;;;;4.03;47.49;100125.91;5551512;32;34264;-58
2021/12/27 07:36:30;;;;;;;19.40;11.93;;;;;;;4.40;44.92;100130.66;5551364;32;33321;-58
2021/12/27 07:39:32;;;;;;;19.00;11.90;;;;;;;4.10;47.76;100131.03;5551001;32;33626;-58
2021/12/27 07:42:35;;;;;;;25.00;12.45;;;;;;;4.28;51.74;100135.28;5551240;32;33685;-59
2021/12/27 07:45:38;;;;;;;20.77;12.52;;;;;;;4.21;46.07;100138.13;5551193;32;33018;-58
2021/12/27 07:48:40;;;;;;;21.23;11.85;;;;;;;4.12;46.71;100140.38;5551096;32;33734;-58
2021/12/27 07:51:44;;;;;;;17.98;11.98;;;;;;;4.11;45.75;100133.47;5551231;32;34173;-58
2021/12/27 07:54:47;;;;;;;17.08;11.63;;;;;;;4.17;49.61;100129.84;5551222;32;34356;-58
2021/12/27 07:57:49;;;;;;;21.62;12.68;;;;;;;4.64;62.99;100136.56;5551214;32;33779;-58
2021/12/27 08:00:52;;;;;;;18.83;11.82;;;;;;;4.66;47.36;100134.47;5551177;32;34272;-58
2021/12/27 08:03:55;;;;;;;16.85;11.18;;;;;;;4.71;62.17;100127.38;5551192;32;33726;-59
2021/12/27 08:07:02;;;;;;;16.05;10.63;;;;;;;5.09;66.93;100128.31;5551130;32;33324;-58
2021/12/27 08:10:05;;;;;;;17.98;11.82;;;;;;;5.46;71.79;100129.47;5550936;32;33723;-58
2021/12/27 08:13:07;;;;;;;19.52;12.18;;;;;;;5.33;44.37;100115.53;5551042;32;34172;-58
2021/12/27 08:16:11;;;;;;;18.58;11.75;;;;;;;4.78;46.62;100123.72;5551299;32;33669;-58
2021/12/27 08:19:16;;;;;;;16.43;11.80;;;;;;;4.87;55.96;100127.56;5550941;32;33393;-58
2021/12/27 08:22:19;;;;;;;17.48;12.00;;;;;;;4.68;44.34;100116.44;5550967;32;33745;-58
2021/12/27 08:25:23;;;;;;;15.38;11.02;;;;;;;4.33;45.35;100116.78;5550908;32;33949;-58
2021/12/27 08:28:26;;;;;;;18.05;11.98;;;;;;;4.73;71.48;100113.81;5557913;32;33637;-58
2021/12/27 08:31:28;;;;;;;16.80;11.40;;;;;;;4.88;48.09;100118.53;5550790;32;33809;-59
2021/12/27 08:34:31;;;;;;;17.73;11.38;;;;;;;4.82;44.35;100115.00;5551037;32;33641;-58
2021/12/27 08:37:34;;;;;;;18.60;12.48;;;;;;;4.69;55.06;100113.53;5550734;32;33582;-58
2021/12/27 08:40:39;;;;;;;16.95;12.07;;;;;;;4.77;45.72;100122.94;5551008;32;33762;-58
2021/12/27 08:43:42;;;;;;;19.02;12.50;;;;;;;4.58;47.43;100133.03;5558924;32;34311;-58
2021/12/27 08:46:44;;;;;;;18.05;11.73;;;;;;;4.39;44.83;100134.38;5569677;32;33581;-58
2021/12/27 08:49:47;;;;;;;22.23;11.63;;;;;;;4.37;45.04;100126.69;5569884;32;33681;-58
2021/12/27 08:53:05;;;;;;;17.65;11.93;;;;;;;4.28;44.24;100137.94;5570131;32;33548;-58
2021/12/27 08:56:08;;;;;;;17.45;11.43;;;;;;;4.16;45.01;100143.34;5570109;32;33876;-58
2021/12/27 08:59:11;;;;;;;19.23;12.02;;;;;;;4.30;43.39;100144.59;5570465;32;34370;-58
2021/12/27 09:02:13;;;;;;;17.92;11.10;;;;;;;4.23;45.72;100142.13;5569874;32;33793;-58
